KSNL/SNL METAR and TAF weather

Enter ICAO airport designator
Station Type Date Time Source
KSNL METAR 2022/06/29 00:15 UTC NOAA

KSNL 290015Z AUTO 10005KT 10SM CLR 29/11 A3014 RMK AO2 T02930111


Station Type Date Time Source
KSNL Decoded METAR 2022/06/29 00:15 UTC NOAA

Shawnee, Shawnee Municipal Airport, OK, United States (KSNL) 35-21-26N 096-56-34W
Jun 28, 2022 - 08:15 PM EDT / 2022.06.29 0015 UTC
Wind: from the E (100 degrees) at 6 MPH (5 KT):0
Visibility: 10 mile(s):0
Sky conditions: clear
Temperature: 84.7 F (29.3 C)
Dew Point: 52.0 F (11.1 C)
Relative Humidity: 32%
Pressure (altimeter): 30.14 in. Hg (1020 hPa)
ob: KSNL 290015Z AUTO 10005KT 10SM CLR 29/11 A3014 RMK AO2 T02930111
cycle: 0

Station Type Date Time Source
KSNL TAF UTC NOAA

Error!

Example: see airport list